Aviation Digital Data Service (ADDS)

Output produced by METARs form (1027 UTC 16 August 2018)
found at http://aviationweather.gov/adds/metars/
 
KBTR 160520Z 1606/1706 10003KT P6SM FEW050 
     FM161500 26003KT P6SM SCT250 
     FM161800 VRB05KT P6SM VCTS SCT035CB SCT150 
     FM170100 VRB03KT P6SM SCT250